METAR Data
IDs: Format: Raw Decoded Include TAF

Data at: 2053 UTC 18 Apr 2021

KSRQ 181953Z 19016G23KT 10SM CLR 28/23 A2985 RMK AO2 SLP107 T02780228
KSRQ 181853Z 19014KT 10SM CLR 29/22 A2987 RMK AO2 SLP115 T02890222
KSRQ 181753Z 19013KT 10SM CLR 28/22 A2989 RMK AO2 SLP121 60000 T02830222 10283 20244 58014
KSRQ 181653Z 20012G19KT 10SM SCT050 27/22 A2991 RMK AO2 SLP126 T02720222
KSRQ 181553Z 18012KT 10SM BKN043 BKN075 27/23 A2993 RMK AO2 RAB27E36 SLP133 P0000 T02720233
KSRQ 181453Z 20011KT 10SM BKN050 26/23 A2993 RMK AO2 SLP135 T02610228 50009
KSRQ 181414Z 21014KT 10SM SCT015 BKN060 26/23 A2993 RMK AO2 T02610228
KSRQ 181400Z 21012KT 10SM BKN009 26/23 A2993 RMK AO2 T02610228
KSRQ 181353Z 21012KT 10SM BKN015 26/23 A2994 RMK AO2 SLP136 T02610228
KSRQ 181321Z 19011KT 10SM SCT009 OVC014 25/23 A2993 RMK AO2 T02500233
KSRQ 181253Z 21012G19KT 10SM BKN007 24/23 A2992 RMK AO2 SLP131 T02440228
KSRQ 181210Z 20008KT 10SM BKN007 24/23 A2991 RMK AO2 T02440233
KSRQ 181153Z 19007KT 10SM CLR 24/23 A2990 RMK AO2 SLP126 7//// T02440233 10244 20239 53010
KSRQ 181053Z 22005KT 10SM CLR 24/23 A2990 RMK AO2 SLP123 T02390228
KSRQ 181019Z 20008KT 10SM BKN007 BKN013 24/23 A2988 RMK AO2 T02390228
KSRQ 181012Z 20006KT 10SM SCT007 SCT013 24/23 A2988 RMK AO2 T02390228
KSRQ 181004Z AUTO 20007KT 10SM BKN007 BKN013 24/23 A2988 RMK AO2 T02390228
KSRQ 180953Z AUTO 21008KT 10SM SCT007 OVC014 24/23 A2988 RMK AO2 SLP118 T02390228
KSRQ 180934Z AUTO 20010KT 10SM FEW008 OVC014 24/23 A2988 RMK AO2 T02390228
KSRQ 180903Z AUTO 20006KT 10SM BKN014 24/23 A2988 RMK AO2 T02390228
KSRQ 180853Z AUTO 19006KT 10SM SCT014 24/23 A2988 RMK AO2 SLP116 T02390228 58008
KSRQ 180753Z AUTO 21006KT 10SM CLR 24/23 A2988 RMK AO2 SLP119 T02390228
KSRQ 180653Z AUTO 22007KT 10SM FEW037 24/23 A2989 RMK AO2 SLP122 T02390228
KSRQ 180553Z AUTO 22006KT 10SM BKN034 24/23 A2990 RMK AO2 SLP124 T02440228 10250 20244 50008
KSRQ 180453Z AUTO 23006KT 10SM OVC036 24/23 A2991 RMK AO2 SLP126 T02440228 402780228
KSRQ 180353Z 22006KT 10SM CLR 24/23 A2989 RMK AO2 SLP120 T02440228
KSRQ 180253Z 21007KT 10SM CLR 24/23 A2988 RMK AO2 SLP117 T02440228 53005
KSRQ 180153Z 21008KT 10SM CLR 24/22 A2987 RMK AO2 SLP114 T02440222
KSRQ 180053Z 20008KT 10SM CLR 24/22 A2987 RMK AO2 SLP113 T02440222
KSRQ 172353Z 22008KT 9SM CLR 25/22 A2986 RMK AO2 SLP112 T02500222 10272 20250 53009
KSRQ 172253Z 22010KT 10SM CLR 26/22 A2985 RMK AO2 SLP107 T02560222
KSRQ 172153Z AUTO 20011KT 10SM CLR 27/22 A2985 RMK AO2 SLP106 T02670222
KSRQ 172053Z 21012KT 10SM CLR 27/22 A2984 RMK AO2 SLP103 T02670222 56017
KSRQ 171953Z 22010KT 9SM CLR 27/23 A2985 RMK AO2 SLP108 T02720228
KSRQ 171853Z 22010KT 9SM CLR 27/23 A2986 RMK AO2 SLP112 T02720228
KSRQ 171753Z 21012KT 9SM CLR 27/23 A2989 RMK AO2 SLP120 6//// T02720228 10278 20239 58004
KSRQ 171653Z 22011KT 8SM CLR 27/23 A2991 RMK AO2 SLP126 T02720228
KSRQ 171553Z 21010KT 9SM CLR 27/23 A2991 RMK AO2 SLP127 T02670228
KSRQ 171453Z 22010KT 10SM CLR 26/22 A2990 RMK AO2 SLP123 6//// T02560222 $
KSRQ 171353Z 21013KT 9SM CLR 25/22 A2987 RMK AO2 SLP115 T02500222 $
KSRQ 171253Z 23009KT 9SM CLR 24/23 A2989 RMK AO2 SLP120 T02440228 $
KSRQ 171224Z 23008KT 8SM FEW009 24/22 A2988 RMK AO2 T02390222 $
KSRQ 171053Z 22011KT 8SM FEW009 23/22 A2984 RMK AO2 SLP104 T02330222
KSRQ 170953Z AUTO 21011KT 7SM SCT007 23/22 A2983 RMK AO2 SLP099 T02330222